sensor_id;sensor_type;location;lat;lon;timestamp;pressure;altitude;pressure_sealevel;temperature;humidity
50310;BME280;36207;51.850;21.698;2023-02-19T00:01:10;99308.44;;;3.56;79.05
50310;BME280;36207;51.850;21.698;2023-02-19T00:03:48;99319.42;;;3.57;79.17
50310;BME280;36207;51.850;21.698;2023-02-19T00:06:14;99325.45;;;3.56;79.30
50310;BME280;36207;51.850;21.698;2023-02-19T00:08:40;99332.45;;;3.53;79.06
50310;BME280;36207;51.850;21.698;2023-02-19T00:11:10;99329.38;;;3.52;78.98
50310;BME280;36207;51.850;21.698;2023-02-19T00:13:38;99325.05;;;3.53;78.92
50310;BME280;36207;51.850;21.698;2023-02-19T00:16:16;99328.54;;;3.54;79.01
50310;BME280;36207;51.850;21.698;2023-02-19T00:18:43;99330.71;;;3.51;78.98
50310;BME280;36207;51.850;21.698;2023-02-19T00:21:10;99332.67;;;3.51;79.02
50310;BME280;36207;51.850;21.698;2023-02-19T00:23:36;99331.30;;;3.51;78.97
50310;BME280;36207;51.850;21.698;2023-02-19T00:26:07;99322.75;;;3.48;78.92
50310;BME280;36207;51.850;21.698;2023-02-19T00:28:34;99328.76;;;3.45;78.90
50310;BME280;36207;51.850;21.698;2023-02-19T00:33:40;99322.39;;;3.36;78.96
50310;BME280;36207;51.850;21.698;2023-02-19T00:36:06;99319.02;;;3.30;79.00
50310;BME280;36207;51.850;21.698;2023-02-19T00:38:35;99318.73;;;3.23;78.77
50310;BME280;36207;51.850;21.698;2023-02-19T00:41:02;99315.81;;;3.17;78.66
50310;BME280;36207;51.850;21.698;2023-02-19T00:44:01;99317.63;;;3.10;78.82
50310;BME280;36207;51.850;21.698;2023-02-19T00:46:39;99314.26;;;3.03;78.80
50310;BME280;36207;51.850;21.698;2023-02-19T00:49:07;99319.73;;;2.98;78.87
50310;BME280;36207;51.850;21.698;2023-02-19T00:51:35;99325.33;;;2.93;78.84
50310;BME280;36207;51.850;21.698;2023-02-19T00:54:02;99328.10;;;2.86;78.90
50310;BME280;36207;51.850;21.698;2023-02-19T00:56:28;99317.29;;;2.78;79.04
50310;BME280;36207;51.850;21.698;2023-02-19T00:58:55;99311.03;;;2.73;79.02
50310;BME280;36207;51.850;21.698;2023-02-19T01:01:21;99304.59;;;2.68;79.12
50310;BME280;36207;51.850;21.698;2023-02-19T01:03:47;99303.55;;;2.64;79.18
50310;BME280;36207;51.850;21.698;2023-02-19T01:06:16;99301.55;;;2.60;79.28
50310;BME280;36207;51.850;21.698;2023-02-19T01:08:42;99304.85;;;2.55;79.29
50310;BME280;36207;51.850;21.698;2023-02-19T01:11:09;99304.07;;;2.50;79.41
50310;BME280;36207;51.850;21.698;2023-02-19T01:13:36;99306.80;;;2.47;79.44
50310;BME280;36207;51.850;21.698;2023-02-19T01:18:32;99305.75;;;2.45;79.40
50310;BME280;36207;51.850;21.698;2023-02-19T01:20:58;99305.02;;;2.43;79.34
50310;BME280;36207;51.850;21.698;2023-02-19T01:23:24;99307.95;;;2.40;79.45
50310;BME280;36207;51.850;21.698;2023-02-19T01:25:50;99315.47;;;2.39;79.44
50310;BME280;36207;51.850;21.698;2023-02-19T01:28:16;99316.23;;;2.38;79.41
50310;BME280;36207;51.850;21.698;2023-02-19T01:30:42;99318.66;;;2.37;79.39
50310;BME280;36207;51.850;21.698;2023-02-19T01:33:09;99316.20;;;2.37;79.38
50310;BME280;36207;51.850;21.698;2023-02-19T01:35:37;99314.77;;;2.35;79.20
50310;BME280;36207;51.850;21.698;2023-02-19T01:38:04;99312.77;;;2.34;79.22
50310;BME280;36207;51.850;21.698;2023-02-19T01:40:35;99311.23;;;2.35;79.19
50310;BME280;36207;51.850;21.698;2023-02-19T01:43:01;99313.52;;;2.37;79.17
50310;BME280;36207;51.850;21.698;2023-02-19T01:45:32;99311.18;;;2.38;79.05
50310;BME280;36207;51.850;21.698;2023-02-19T01:48:08;99308.81;;;2.39;78.97
50310;BME280;36207;51.850;21.698;2023-02-19T01:50:57;99308.46;;;2.39;79.01
50310;BME280;36207;51.850;21.698;2023-02-19T01:53:29;99308.69;;;2.40;79.04
50310;BME280;36207;51.850;21.698;2023-02-19T01:55:58;99305.92;;;2.41;79.11
50310;BME280;36207;51.850;21.698;2023-02-19T01:58:29;99308.42;;;2.43;79.05
50310;BME280;36207;51.850;21.698;2023-02-19T02:00:57;99310.14;;;2.43;79.04
50310;BME280;36207;51.850;21.698;2023-02-19T02:03:23;99314.80;;;2.42;78.99
50310;BME280;36207;51.850;21.698;2023-02-19T02:06:04;99310.84;;;2.41;79.10
50310;BME280;36207;51.850;21.698;2023-02-19T02:08:32;99312.20;;;2.42;79.09
50310;BME280;36207;51.850;21.698;2023-02-19T02:11:18;99312.28;;;2.43;79.21
50310;BME280;36207;51.850;21.698;2023-02-19T02:13:45;99310.16;;;2.43;79.05
50310;BME280;36207;51.850;21.698;2023-02-19T02:19:19;99308.91;;;2.43;79.02
50310;BME280;36207;51.850;21.698;2023-02-19T02:24:40;99311.27;;;2.46;79.03
50310;BME280;36207;51.850;21.698;2023-02-19T02:27:38;99315.55;;;2.48;78.97
50310;BME280;36207;51.850;21.698;2023-02-19T02:32:53;99314.91;;;2.49;78.98
50310;BME280;36207;51.850;21.698;2023-02-19T02:35:25;99315.83;;;2.50;79.00
50310;BME280;36207;51.850;21.698;2023-02-19T02:37:54;99315.17;;;2.52;79.13
50310;BME280;36207;51.850;21.698;2023-02-19T02:40:21;99312.68;;;2.52;79.08
50310;BME280;36207;51.850;21.698;2023-02-19T02:42:48;99309.48;;;2.52;79.05
50310;BME280;36207;51.850;21.698;2023-02-19T02:45:34;99306.83;;;2.52;79.06
50310;BME280;36207;51.850;21.698;2023-02-19T02:48:07;99304.95;;;2.54;79.09
50310;BME280;36207;51.850;21.698;2023-02-19T02:50:43;99302.84;;;2.56;79.31
50310;BME280;36207;51.850;21.698;2023-02-19T02:53:14;99302.23;;;2.57;79.29
50310;BME280;36207;51.850;21.698;2023-02-19T02:56:01;99302.73;;;2.57;79.06
50310;BME280;36207;51.850;21.698;2023-02-19T02:58:28;99304.45;;;2.57;79.04
50310;BME280;36207;51.850;21.698;2023-02-19T03:01:03;99307.48;;;2.59;78.78
50310;BME280;36207;51.850;21.698;2023-02-19T03:03:53;99307.71;;;2.60;78.56
50310;BME280;36207;51.850;21.698;2023-02-19T03:06:21;99310.57;;;2.61;78.51
50310;BME280;36207;51.850;21.698;2023-02-19T03:09:19;99308.10;;;2.59;77.88
50310;BME280;36207;51.850;21.698;2023-02-19T03:11:48;99303.96;;;2.58;77.79
50310;BME280;36207;51.850;21.698;2023-02-19T03:14:44;99302.55;;;2.58;77.85
50310;BME280;36207;51.850;21.698;2023-02-19T03:17:38;99298.42;;;2.60;77.87
50310;BME280;36207;51.850;21.698;2023-02-19T03:20:25;99291.70;;;2.62;78.19
50310;BME280;36207;51.850;21.698;2023-02-19T03:22:52;99293.41;;;2.62;78.12
50310;BME280;36207;51.850;21.698;2023-02-19T03:25:24;99290.86;;;2.61;77.96
50310;BME280;36207;51.850;21.698;2023-02-19T03:28:12;99288.98;;;2.61;77.99
50310;BME280;36207;51.850;21.698;2023-02-19T03:30:46;99285.32;;;2.61;78.03
50310;BME280;36207;51.850;21.698;2023-02-19T03:33:16;99285.84;;;2.62;78.18
50310;BME280;36207;51.850;21.698;2023-02-19T03:35:46;99283.13;;;2.65;78.22
50310;BME280;36207;51.850;21.698;2023-02-19T03:38:35;99288.08;;;2.66;78.12
50310;BME280;36207;51.850;21.698;2023-02-19T03:41:21;99287.28;;;2.66;78.18
50310;BME280;36207;51.850;21.698;2023-02-19T03:44:12;99288.92;;;2.65;77.99
50310;BME280;36207;51.850;21.698;2023-02-19T03:47:00;99292.43;;;2.65;77.86
50310;BME280;36207;51.850;21.698;2023-02-19T03:52:01;99297.30;;;2.65;78.08
50310;BME280;36207;51.850;21.698;2023-02-19T03:54:38;99298.59;;;2.65;78.18
50310;BME280;36207;51.850;21.698;2023-02-19T03:59:53;99294.25;;;2.64;78.06
50310;BME280;36207;51.850;21.698;2023-02-19T04:05:25;99295.63;;;2.63;78.21
50310;BME280;36207;51.850;21.698;2023-02-19T04:07:54;99291.08;;;2.61;78.08
50310;BME280;36207;51.850;21.698;2023-02-19T04:10:22;99290.26;;;2.58;78.14
50310;BME280;36207;51.850;21.698;2023-02-19T04:13:05;99288.77;;;2.58;78.11
50310;BME280;36207;51.850;21.698;2023-02-19T04:15:35;99286.80;;;2.58;78.27
50310;BME280;36207;51.850;21.698;2023-02-19T04:18:08;99280.80;;;2.58;78.30
50310;BME280;36207;51.850;21.698;2023-02-19T04:20:43;99281.81;;;2.57;78.31
50310;BME280;36207;51.850;21.698;2023-02-19T04:23:11;99280.14;;;2.58;78.41
50310;BME280;36207;51.850;21.698;2023-02-19T04:25:38;99276.73;;;2.58;78.46
50310;BME280;36207;51.850;21.698;2023-02-19T04:28:08;99274.31;;;2.60;78.61
50310;BME280;36207;51.850;21.698;2023-02-19T04:30:34;99273.39;;;2.60;78.70
50310;BME280;36207;51.850;21.698;2023-02-19T04:33:00;99270.31;;;2.59;78.43
50310;BME280;36207;51.850;21.698;2023-02-19T04:35:25;99267.63;;;2.58;78.54
50310;BME280;36207;51.850;21.698;2023-02-19T04:37:51;99266.46;;;2.57;78.61
50310;BME280;36207;51.850;21.698;2023-02-19T04:40:17;99263.08;;;2.58;78.56
50310;BME280;36207;51.850;21.698;2023-02-19T04:42:43;99260.13;;;2.59;78.61
50310;BME280;36207;51.850;21.698;2023-02-19T04:45:09;99262.38;;;2.60;78.60
50310;BME280;36207;51.850;21.698;2023-02-19T04:47:35;99261.09;;;2.60;78.72
50310;BME280;36207;51.850;21.698;2023-02-19T04:50:01;99260.64;;;2.59;78.56
50310;BME280;36207;51.850;21.698;2023-02-19T04:52:27;99259.02;;;2.60;78.60
50310;BME280;36207;51.850;21.698;2023-02-19T04:54:52;99263.11;;;2.61;78.66
50310;BME280;36207;51.850;21.698;2023-02-19T04:57:18;99256.79;;;2.61;78.52
50310;BME280;36207;51.850;21.698;2023-02-19T04:59:45;99251.67;;;2.61;78.53
50310;BME280;36207;51.850;21.698;2023-02-19T05:02:11;99252.48;;;2.60;78.36
50310;BME280;36207;51.850;21.698;2023-02-19T05:04:37;99249.04;;;2.58;78.16
50310;BME280;36207;51.850;21.698;2023-02-19T05:07:03;99252.82;;;2.57;78.22
50310;BME280;36207;51.850;21.698;2023-02-19T05:09:29;99255.45;;;2.57;78.29
50310;BME280;36207;51.850;21.698;2023-02-19T05:11:55;99252.98;;;2.57;78.34
50310;BME280;36207;51.850;21.698;2023-02-19T05:14:21;99248.21;;;2.57;78.27
50310;BME280;36207;51.850;21.698;2023-02-19T05:16:47;99248.43;;;2.57;78.30
50310;BME280;36207;51.850;21.698;2023-02-19T05:19:13;99245.70;;;2.56;78.11
50310;BME280;36207;51.850;21.698;2023-02-19T05:21:39;99248.63;;;2.57;78.22
50310;BME280;36207;51.850;21.698;2023-02-19T05:24:07;99246.85;;;2.57;78.04
50310;BME280;36207;51.850;21.698;2023-02-19T05:26:33;99245.90;;;2.55;77.73
50310;BME280;36207;51.850;21.698;2023-02-19T05:29:00;99248.52;;;2.54;77.74
50310;BME280;36207;51.850;21.698;2023-02-19T05:31:26;99242.16;;;2.52;77.59
50310;BME280;36207;51.850;21.698;2023-02-19T05:33:54;99239.92;;;2.50;77.44
50310;BME280;36207;51.850;21.698;2023-02-19T05:36:20;99246.05;;;2.50;77.58
50310;BME280;36207;51.850;21.698;2023-02-19T05:38:47;99243.21;;;2.51;77.52
50310;BME280;36207;51.850;21.698;2023-02-19T05:41:19;99240.58;;;2.51;77.44
50310;BME280;36207;51.850;21.698;2023-02-19T05:43:47;99234.77;;;2.51;77.53
50310;BME280;36207;51.850;21.698;2023-02-19T05:46:16;99236.09;;;2.50;77.27
50310;BME280;36207;51.850;21.698;2023-02-19T05:48:42;99231.41;;;2.49;77.47
50310;BME280;36207;51.850;21.698;2023-02-19T05:51:13;99229.98;;;2.50;77.52
50310;BME280;36207;51.850;21.698;2023-02-19T05:53:41;99222.35;;;2.50;77.45
50310;BME280;36207;51.850;21.698;2023-02-19T05:56:25;99222.96;;;2.51;77.41
50310;BME280;36207;51.850;21.698;2023-02-19T05:58:53;99220.96;;;2.52;77.35
50310;BME280;36207;51.850;21.698;2023-02-19T06:01:21;99219.61;;;2.52;77.27
50310;BME280;36207;51.850;21.698;2023-02-19T06:03:47;99215.61;;;2.51;77.23
50310;BME280;36207;51.850;21.698;2023-02-19T06:06:14;99211.40;;;2.51;77.16
50310;BME280;36207;51.850;21.698;2023-02-19T06:08:40;99212.89;;;2.52;77.18
50310;BME280;36207;51.850;21.698;2023-02-19T06:11:06;99215.42;;;2.53;77.24
50310;BME280;36207;51.850;21.698;2023-02-19T06:13:32;99213.55;;;2.54;77.14
50310;BME280;36207;51.850;21.698;2023-02-19T06:15:58;99209.91;;;2.54;76.95
50310;BME280;36207;51.850;21.698;2023-02-19T06:18:24;99207.98;;;2.54;76.98
50310;BME280;36207;51.850;21.698;2023-02-19T06:20:49;99208.74;;;2.53;76.96
50310;BME280;36207;51.850;21.698;2023-02-19T06:23:15;99210.73;;;2.52;77.16
50310;BME280;36207;51.850;21.698;2023-02-19T06:25:41;99219.38;;;2.54;77.09
50310;BME280;36207;51.850;21.698;2023-02-19T06:28:07;99226.56;;;2.54;77.13
50310;BME280;36207;51.850;21.698;2023-02-19T06:30:35;99233.58;;;2.54;76.95
50310;BME280;36207;51.850;21.698;2023-02-19T06:33:01;99233.05;;;2.54;76.93
50310;BME280;36207;51.850;21.698;2023-02-19T06:35:27;99236.44;;;2.54;77.03
50310;BME280;36207;51.850;21.698;2023-02-19T06:37:53;99237.86;;;2.53;77.03
50310;BME280;36207;51.850;21.698;2023-02-19T06:40:19;99237.17;;;2.55;77.07
50310;BME280;36207;51.850;21.698;2023-02-19T06:42:44;99234.69;;;2.57;77.18
50310;BME280;36207;51.850;21.698;2023-02-19T06:45:10;99234.83;;;2.59;77.04
50310;BME280;36207;51.850;21.698;2023-02-19T06:47:36;99236.58;;;2.59;76.95
50310;BME280;36207;51.850;21.698;2023-02-19T06:50:02;99245.21;;;2.59;77.07
50310;BME280;36207;51.850;21.698;2023-02-19T06:52:28;99250.65;;;2.59;77.32
50310;BME280;36207;51.850;21.698;2023-02-19T06:54:54;99259.80;;;2.59;77.24
50310;BME280;36207;51.850;21.698;2023-02-19T06:57:20;99262.26;;;2.61;77.43
50310;BME280;36207;51.850;21.698;2023-02-19T06:59:46;99261.04;;;2.63;77.33
50310;BME280;36207;51.850;21.698;2023-02-19T07:02:12;99262.55;;;2.63;77.39
50310;BME280;36207;51.850;21.698;2023-02-19T07:04:38;99262.48;;;2.62;77.39
50310;BME280;36207;51.850;21.698;2023-02-19T07:07:04;99261.52;;;2.61;77.61
50310;BME280;36207;51.850;21.698;2023-02-19T07:09:31;99258.66;;;2.62;77.84
50310;BME280;36207;51.850;21.698;2023-02-19T07:11:57;99262.19;;;2.64;77.74
50310;BME280;36207;51.850;21.698;2023-02-19T07:14:23;99256.91;;;2.65;78.00
50310;BME280;36207;51.850;21.698;2023-02-19T07:16:49;99253.80;;;2.68;78.36
50310;BME280;36207;51.850;21.698;2023-02-19T07:19:15;99254.50;;;2.68;78.04
50310;BME280;36207;51.850;21.698;2023-02-19T07:21:41;99260.94;;;2.69;78.20
50310;BME280;36207;51.850;21.698;2023-02-19T07:24:09;99258.45;;;2.71;78.34
50310;BME280;36207;51.850;21.698;2023-02-19T07:26:35;99260.86;;;2.74;78.53
50310;BME280;36207;51.850;21.698;2023-02-19T07:29:01;99259.88;;;2.75;78.31
50310;BME280;36207;51.850;21.698;2023-02-19T07:31:27;99262.15;;;2.75;78.48
50310;BME280;36207;51.850;21.698;2023-02-19T07:33:53;99264.02;;;2.72;78.37
50310;BME280;36207;51.850;21.698;2023-02-19T07:36:21;99265.83;;;2.73;78.32
50310;BME280;36207;51.850;21.698;2023-02-19T07:38:55;99268.30;;;2.73;78.42
50310;BME280;36207;51.850;21.698;2023-02-19T07:41:22;99273.72;;;2.74;78.28
50310;BME280;36207;51.850;21.698;2023-02-19T07:43:49;99268.81;;;2.75;78.52
50310;BME280;36207;51.850;21.698;2023-02-19T07:46:15;99268.12;;;2.75;78.32
50310;BME280;36207;51.850;21.698;2023-02-19T07:48:41;99270.39;;;2.75;78.13
50310;BME280;36207;51.850;21.698;2023-02-19T07:51:12;99270.91;;;2.77;78.45
50310;BME280;36207;51.850;21.698;2023-02-19T07:53:38;99269.72;;;2.79;78.57
50310;BME280;36207;51.850;21.698;2023-02-19T07:56:06;99274.98;;;2.79;78.41
50310;BME280;36207;51.850;21.698;2023-02-19T07:58:33;99279.87;;;2.79;78.50
50310;BME280;36207;51.850;21.698;2023-02-19T08:01:28;99279.83;;;2.81;78.67
50310;BME280;36207;51.850;21.698;2023-02-19T08:04:14;99275.86;;;2.82;78.29
50310;BME280;36207;51.850;21.698;2023-02-19T08:06:40;99274.13;;;2.84;78.18
50310;BME280;36207;51.850;21.698;2023-02-19T08:09:07;99273.98;;;2.85;78.40
50310;BME280;36207;51.850;21.698;2023-02-19T08:11:33;99272.71;;;2.87;78.78
50310;BME280;36207;51.850;21.698;2023-02-19T08:14:17;99274.11;;;2.89;78.45
50310;BME280;36207;51.850;21.698;2023-02-19T08:16:48;99276.36;;;2.92;78.27
50310;BME280;36207;51.850;21.698;2023-02-19T08:19:14;99275.48;;;2.94;78.14
50310;BME280;36207;51.850;21.698;2023-02-19T08:21:40;99273.91;;;2.95;78.28
50310;BME280;36207;51.850;21.698;2023-02-19T08:24:06;99276.35;;;2.95;78.10
50310;BME280;36207;51.850;21.698;2023-02-19T08:26:32;99278.31;;;2.97;78.30
50310;BME280;36207;51.850;21.698;2023-02-19T08:28:58;99281.95;;;3.01;78.34
50310;BME280;36207;51.850;21.698;2023-02-19T08:31:24;99280.15;;;3.04;78.09
50310;BME280;36207;51.850;21.698;2023-02-19T08:33:51;99282.91;;;3.07;78.32
50310;BME280;36207;51.850;21.698;2023-02-19T08:36:18;99283.62;;;3.11;78.30
50310;BME280;36207;51.850;21.698;2023-02-19T08:38:43;99281.88;;;3.13;78.17
50310;BME280;36207;51.850;21.698;2023-02-19T08:41:11;99284.30;;;3.11;77.59
50310;BME280;36207;51.850;21.698;2023-02-19T08:43:38;99287.40;;;3.12;77.99
50310;BME280;36207;51.850;21.698;2023-02-19T08:46:05;99290.60;;;3.13;78.07
50310;BME280;36207;51.850;21.698;2023-02-19T08:48:32;99290.06;;;3.13;77.18
50310;BME280;36207;51.850;21.698;2023-02-19T08:51:00;99292.48;;;3.12;77.12
50310;BME280;36207;51.850;21.698;2023-02-19T08:53:30;99290.89;;;3.12;77.69
50310;BME280;36207;51.850;21.698;2023-02-19T08:55:56;99289.21;;;3.17;78.08
50310;BME280;36207;51.850;21.698;2023-02-19T08:58:22;99284.95;;;3.23;77.87
50310;BME280;36207;51.850;21.698;2023-02-19T09:00:51;99283.05;;;3.26;77.44
50310;BME280;36207;51.850;21.698;2023-02-19T09:03:17;99284.27;;;3.30;77.66
50310;BME280;36207;51.850;21.698;2023-02-19T09:05:43;99279.80;;;3.36;77.55
50310;BME280;36207;51.850;21.698;2023-02-19T09:08:11;99276.13;;;3.39;77.00
50310;BME280;36207;51.850;21.698;2023-02-19T09:10:38;99274.73;;;3.41;76.61
50310;BME280;36207;51.850;21.698;2023-02-19T09:13:04;99274.72;;;3.43;76.51
50310;BME280;36207;51.850;21.698;2023-02-19T09:15:30;99275.58;;;3.45;76.84
50310;BME280;36207;51.850;21.698;2023-02-19T09:17:57;99271.29;;;3.45;76.95
50310;BME280;36207;51.850;21.698;2023-02-19T09:20:22;99271.20;;;3.48;77.20
50310;BME280;36207;51.850;21.698;2023-02-19T09:22:49;99267.55;;;3.49;76.53
50310;BME280;36207;51.850;21.698;2023-02-19T09:25:15;99269.30;;;3.50;76.41
50310;BME280;36207;51.850;21.698;2023-02-19T09:27:40;99267.23;;;3.51;76.23
50310;BME280;36207;51.850;21.698;2023-02-19T09:30:07;99268.61;;;3.55;76.25
50310;BME280;36207;51.850;21.698;2023-02-19T09:32:32;99268.48;;;3.60;76.56
50310;BME280;36207;51.850;21.698;2023-02-19T09:34:58;99266.77;;;3.63;75.67
50310;BME280;36207;51.850;21.698;2023-02-19T09:37:27;99269.98;;;3.61;75.36
50310;BME280;36207;51.850;21.698;2023-02-19T09:39:54;99267.88;;;3.58;75.79
50310;BME280;36207;51.850;21.698;2023-02-19T09:42:23;99272.61;;;3.64;76.57
50310;BME280;36207;51.850;21.698;2023-02-19T09:44:54;99274.91;;;3.71;76.57
50310;BME280;36207;51.850;21.698;2023-02-19T09:47:24;99278.32;;;3.81;76.71
50310;BME280;36207;51.850;21.698;2023-02-19T09:50:00;99280.63;;;3.84;75.68
50310;BME280;36207;51.850;21.698;2023-02-19T09:52:36;99284.15;;;3.83;75.72
50310;BME280;36207;51.850;21.698;2023-02-19T09:55:16;99283.20;;;3.85;76.08
50310;BME280;36207;51.850;21.698;2023-02-19T09:57:43;99283.13;;;3.88;75.43
50310;BME280;36207;51.850;21.698;2023-02-19T10:02:37;99281.36;;;3.86;75.62
50310;BME280;36207;51.850;21.698;2023-02-19T10:05:13;99281.21;;;3.87;74.79
50310;BME280;36207;51.850;21.698;2023-02-19T10:07:44;99286.67;;;3.89;75.39
50310;BME280;36207;51.850;21.698;2023-02-19T10:12:49;99283.17;;;3.97;75.39
50310;BME280;36207;51.850;21.698;2023-02-19T10:15:20;99281.83;;;3.98;75.54
50310;BME280;36207;51.850;21.698;2023-02-19T10:17:47;99281.15;;;4.02;75.46
50310;BME280;36207;51.850;21.698;2023-02-19T10:20:18;99282.68;;;4.04;75.20
50310;BME280;36207;51.850;21.698;2023-02-19T10:22:47;99284.21;;;4.07;75.33
50310;BME280;36207;51.850;21.698;2023-02-19T10:25:15;99285.23;;;4.07;75.54
50310;BME280;36207;51.850;21.698;2023-02-19T10:27:41;99282.23;;;4.10;75.85
50310;BME280;36207;51.850;21.698;2023-02-19T10:30:20;99275.32;;;4.18;75.91
50310;BME280;36207;51.850;21.698;2023-02-19T10:33:00;99272.92;;;4.24;75.93
50310;BME280;36207;51.850;21.698;2023-02-19T10:35:28;99270.50;;;4.27;75.23
50310;BME280;36207;51.850;21.698;2023-02-19T10:37:55;99275.58;;;4.26;74.97
50310;BME280;36207;51.850;21.698;2023-02-19T10:40:24;99277.70;;;4.22;74.64
50310;BME280;36207;51.850;21.698;2023-02-19T10:43:02;99283.95;;;4.21;75.26
50310;BME280;36207;51.850;21.698;2023-02-19T10:45:36;99279.33;;;4.23;74.95
50310;BME280;36207;51.850;21.698;2023-02-19T10:48:04;99287.33;;;4.23;74.03
50310;BME280;36207;51.850;21.698;2023-02-19T10:50:35;99292.73;;;4.25;74.73
50310;BME280;36207;51.850;21.698;2023-02-19T10:53:04;99294.92;;;4.36;75.62
50310;BME280;36207;51.850;21.698;2023-02-19T10:55:32;99291.13;;;4.49;75.29
50310;BME280;36207;51.850;21.698;2023-02-19T10:58:25;99289.45;;;4.57;75.10
50310;BME280;36207;51.850;21.698;2023-02-19T11:01:16;99288.49;;;4.64;73.94
50310;BME280;36207;51.850;21.698;2023-02-19T11:03:49;99291.73;;;4.67;73.86
50310;BME280;36207;51.850;21.698;2023-02-19T11:06:18;99295.48;;;4.68;73.58
50310;BME280;36207;51.850;21.698;2023-02-19T11:08:58;99297.80;;;4.66;73.23
50310;BME280;36207;51.850;21.698;2023-02-19T11:11:30;99297.23;;;4.62;72.62
50310;BME280;36207;51.850;21.698;2023-02-19T11:14:15;99306.33;;;4.54;72.78
50310;BME280;36207;51.850;21.698;2023-02-19T11:16:47;99306.52;;;4.48;73.87
50310;BME280;36207;51.850;21.698;2023-02-19T11:19:34;99304.02;;;4.45;73.72
50310;BME280;36207;51.850;21.698;2023-02-19T11:22:16;99306.00;;;4.47;74.30
50310;BME280;36207;51.850;21.698;2023-02-19T11:24:47;99303.52;;;4.54;73.20
50310;BME280;36207;51.850;21.698;2023-02-19T11:27:20;99299.11;;;4.59;72.82
50310;BME280;36207;51.850;21.698;2023-02-19T11:29:46;99301.66;;;4.68;73.28
50310;BME280;36207;51.850;21.698;2023-02-19T11:34:44;99301.50;;;4.83;72.92
50310;BME280;36207;51.850;21.698;2023-02-19T11:37:18;99302.73;;;4.94;72.74
50310;BME280;36207;51.850;21.698;2023-02-19T11:39:47;99304.51;;;5.05;72.70
50310;BME280;36207;51.850;21.698;2023-02-19T11:56:35;99299.14;;;5.46;69.34
50310;BME280;36207;51.850;21.698;2023-02-19T12:09:21;99304.13;;;5.26;69.05
50310;BME280;36207;51.850;21.698;2023-02-19T12:12:17;99312.00;;;5.23;70.24
50310;BME280;36207;51.850;21.698;2023-02-19T12:15:15;99315.61;;;5.19;68.04
50310;BME280;36207;51.850;21.698;2023-02-19T12:21:01;99326.23;;;5.19;69.08
50310;BME280;36207;51.850;21.698;2023-02-19T12:26:26;99319.17;;;5.29;69.62
50310;BME280;36207;51.850;21.698;2023-02-19T12:39:59;99327.61;;;4.90;69.19
50310;BME280;36207;51.850;21.698;2023-02-19T12:45:39;99338.15;;;4.96;69.39
50310;BME280;36207;51.850;21.698;2023-02-19T12:48:47;99340.25;;;4.98;68.96
50310;BME280;36207;51.850;21.698;2023-02-19T12:56:31;99344.02;;;5.01;68.63
50310;BME280;36207;51.850;21.698;2023-02-19T12:59:04;99345.58;;;4.99;67.91
50310;BME280;36207;51.850;21.698;2023-02-19T13:01:37;99354.06;;;4.96;68.18
50310;BME280;36207;51.850;21.698;2023-02-19T13:04:16;99361.46;;;4.88;68.70
50310;BME280;36207;51.850;21.698;2023-02-19T13:06:58;99357.92;;;4.87;68.39
50310;BME280;36207;51.850;21.698;2023-02-19T13:12:36;99373.66;;;4.80;68.09
50310;BME280;36207;51.850;21.698;2023-02-19T13:15:28;99370.94;;;4.72;67.93
50310;BME280;36207;51.850;21.698;2023-02-19T13:17:57;99370.73;;;4.71;68.73
50310;BME280;36207;51.850;21.698;2023-02-19T13:20:33;99370.59;;;4.79;69.52
50310;BME280;36207;51.850;21.698;2023-02-19T13:26:10;99372.41;;;5.01;67.73
50310;BME280;36207;51.850;21.698;2023-02-19T13:36:40;99380.35;;;5.28;68.38
50310;BME280;36207;51.850;21.698;2023-02-19T13:39:06;99379.13;;;5.27;66.82
50310;BME280;36207;51.850;21.698;2023-02-19T13:41:39;99384.64;;;5.24;64.93
50310;BME280;36207;51.850;21.698;2023-02-19T13:44:29;99390.34;;;5.20;66.56
50310;BME280;36207;51.850;21.698;2023-02-19T13:46:56;99393.78;;;5.09;65.50
50310;BME280;36207;51.850;21.698;2023-02-19T13:52:00;99403.98;;;4.87;65.97
50310;BME280;36207;51.850;21.698;2023-02-19T13:54:31;99410.03;;;4.72;65.68
50310;BME280;36207;51.850;21.698;2023-02-19T13:59:43;99420.69;;;4.40;66.89
50310;BME280;36207;51.850;21.698;2023-02-19T14:02:13;99417.27;;;4.29;67.34
50310;BME280;36207;51.850;21.698;2023-02-19T14:09:50;99416.22;;;4.15;68.42
50310;BME280;36207;51.850;21.698;2023-02-19T14:14:54;99420.48;;;4.19;68.67
50310;BME280;36207;51.850;21.698;2023-02-19T14:25:29;99436.61;;;4.36;68.66
50310;BME280;36207;51.850;21.698;2023-02-19T14:33:10;99441.89;;;4.61;68.36
50310;BME280;36207;51.850;21.698;2023-02-19T14:35:44;99443.70;;;4.64;67.88
50310;BME280;36207;51.850;21.698;2023-02-19T14:38:20;99447.05;;;4.66;67.87
50310;BME280;36207;51.850;21.698;2023-02-19T14:40:47;99446.67;;;4.64;67.35
50310;BME280;36207;51.850;21.698;2023-02-19T14:43:16;99449.88;;;4.62;67.39
50310;BME280;36207;51.850;21.698;2023-02-19T14:45:48;99456.91;;;4.57;67.07
50310;BME280;36207;51.850;21.698;2023-02-19T14:48:22;99461.34;;;4.52;67.68
50310;BME280;36207;51.850;21.698;2023-02-19T14:50:54;99460.64;;;4.48;67.50
50310;BME280;36207;51.850;21.698;2023-02-19T14:53:22;99464.84;;;4.44;66.98
50310;BME280;36207;51.850;21.698;2023-02-19T14:55:50;99469.46;;;4.44;67.79
50310;BME280;36207;51.850;21.698;2023-02-19T14:58:30;99470.97;;;4.43;67.58
50310;BME280;36207;51.850;21.698;2023-02-19T15:00:57;99471.19;;;4.43;68.22
50310;BME280;36207;51.850;21.698;2023-02-19T15:03:29;99473.64;;;4.43;68.07
50310;BME280;36207;51.850;21.698;2023-02-19T15:06:05;99474.30;;;4.42;67.99
50310;BME280;36207;51.850;21.698;2023-02-19T15:08:36;99476.95;;;4.42;68.39
50310;BME280;36207;51.850;21.698;2023-02-19T15:11:06;99482.77;;;4.42;68.26
50310;BME280;36207;51.850;21.698;2023-02-19T15:13:34;99483.32;;;4.40;67.73
50310;BME280;36207;51.850;21.698;2023-02-19T15:16:00;99486.63;;;4.37;67.60
50310;BME280;36207;51.850;21.698;2023-02-19T15:18:26;99490.37;;;4.31;67.08